Terminal Aerodrome Forecast
Issued by NWS

Home | Current Version | Previous Version | Text Only | Print | Product List | Glossary On
Versions: 1 2 3 4 5 6 7 8 9 10 11 12 13 14 15
135
FTUS45 KPIH 141724
TAFSUN
TAF
KSUN 141724Z 1418/1518 31007KT P6SM VCSH SCT020 BKN100
     FM150300 30008KT P6SM VCSH SCT030 BKN080=

USA.gov is the U.S. government's official web portal to all federal, state and local government web resources and services.